Time;durP1;ratioP1;P1;durP2;ratioP2;P2;SDS_P1;SDS_P2;PMS_P1;PMS_P2;Temp;Humidity;BMP_temperature;BMP_pressure;BME280_temperature;BME280_humidity;BME280_pressure;Samples;Min_cycle;Max_cycle;Signal;HPM_P1;HPM_P2
2021/09/10 00:01:50;;;;;;;5.28;4.78;;;23.80;51.50;;;28.22;33.73;100795.53;5093082;28;20920;-12
2021/09/10 00:04:16;;;;;;;4.95;4.55;;;23.90;51.50;;;28.19;33.97;100796.66;5092795;28;20048;-12
2021/09/10 00:06:42;;;;;;;4.45;3.90;;;23.90;51.50;;;28.19;33.80;100785.06;5092615;28;20047;-12
2021/09/10 00:09:08;;;;;;;5.35;4.78;;;23.90;51.50;;;28.21;33.64;100786.59;5092665;28;20052;-12
2021/09/10 00:11:34;;;;;;;4.68;4.28;;;23.80;51.50;;;28.22;33.89;100784.78;5092700;28;20146;-11
2021/09/10 00:14:00;;;;;;;4.50;4.10;;;23.90;51.50;;;28.22;33.87;100785.63;5092374;28;20494;-12
2021/09/10 00:16:25;;;;;;;4.60;4.18;;;23.90;51.50;;;28.19;33.95;100783.22;5092327;28;20051;-12
2021/09/10 00:18:51;;;;;;;4.25;3.83;;;23.90;51.50;;;28.21;33.96;100791.97;5092149;28;20123;-12
2021/09/10 00:21:17;;;;;;;5.13;4.63;;;23.90;51.50;;;28.19;33.74;100793.13;5092372;28;20052;-12
2021/09/10 00:23:43;;;;;;;5.47;4.47;;;23.90;51.50;;;28.18;33.66;100788.75;5092279;28;20139;-12
2021/09/10 00:26:09;;;;;;;4.70;4.30;;;23.90;51.50;;;28.19;33.60;100787.75;5092211;28;20040;-12
2021/09/10 00:28:35;;;;;;;4.93;4.43;;;23.90;51.50;;;28.20;33.77;100784.06;5092484;28;20086;-12
2021/09/10 00:31:02;;;;;;;4.30;3.90;;;23.90;51.50;;;28.19;34.00;100785.91;5092090;28;20075;-12
2021/09/10 00:33:28;;;;;;;4.85;4.07;;;23.90;51.50;;;28.20;33.74;100794.81;5092108;28;20044;-12
2021/09/10 00:35:55;;;;;;;4.72;4.32;;;23.90;51.50;;;28.20;33.96;100794.81;5092178;28;20417;-12
2021/09/10 00:38:21;;;;;;;4.55;4.10;;;23.90;51.50;;;28.18;33.94;100794.97;5092137;28;20048;-12
2021/09/10 00:40:48;;;;;;;4.50;4.10;;;23.90;51.50;;;28.18;34.02;100788.75;5092120;28;20555;-12
2021/09/10 00:43:17;;;;;;;4.32;3.92;;;23.90;51.50;;;28.19;33.85;100796.66;5092637;28;20052;-12
2021/09/10 00:45:45;;;;;;;4.80;4.40;;;23.90;51.50;;;28.18;33.98;100791.44;5092055;28;20055;-11
2021/09/10 00:48:11;;;;;;;5.10;4.30;;;23.80;51.40;;;28.18;33.60;100788.75;5091835;28;20529;-12
2021/09/10 00:50:38;;;;;;;5.45;4.57;;;23.90;51.50;;;28.17;33.90;100798.66;5089187;28;20123;-12
2021/09/10 00:53:04;;;;;;;5.22;4.72;;;23.90;51.50;;;28.19;33.82;100796.66;5091705;28;20383;-12
2021/09/10 00:55:31;;;;;;;4.65;4.25;;;23.90;51.50;;;28.19;33.92;100799.34;5093206;28;20048;-12
2021/09/10 00:57:56;;;;;;;4.53;4.13;;;23.90;51.50;;;28.19;33.59;100793.97;5093118;28;20405;-12
2021/09/10 01:00:22;;;;;;;5.07;4.57;;;23.90;51.50;;;28.20;34.01;100786.75;5095117;28;20059;-12
2021/09/10 01:02:49;;;;;;;5.50;5.00;;;23.90;51.50;;;28.18;33.60;100794.13;5095209;28;20044;-12
2021/09/10 01:05:15;;;;;;;4.90;4.43;;;23.90;51.50;;;28.17;33.75;100787.91;5095276;28;20409;-12
2021/09/10 01:07:41;;;;;;;4.90;4.40;;;23.90;51.50;;;28.20;33.43;100790.31;5095301;28;20442;-12
2021/09/10 01:10:09;;;;;;;4.65;4.15;;;23.90;51.50;;;28.19;33.84;100785.91;5095041;28;20059;-11
2021/09/10 01:12:35;;;;;;;4.18;3.88;;;23.90;51.50;;;28.20;34.00;100776.00;5076812;28;20047;-12
2021/09/10 01:15:02;;;;;;;4.57;4.18;;;23.90;51.50;;;28.18;34.00;100784.19;5077304;28;20142;-12
2021/09/10 01:17:28;;;;;;;4.45;4.05;;;23.90;51.50;;;28.17;33.87;100784.38;5095306;28;20048;-12
2021/09/10 01:19:54;;;;;;;4.90;4.22;;;23.90;51.50;;;28.17;33.60;100779.84;5093780;28;20462;-12
2021/09/10 01:22:20;;;;;;;4.57;4.18;;;23.90;51.50;;;28.18;33.98;100784.19;5095223;28;20079;-12
2021/09/10 01:25:13;;;;;;;5.13;4.63;;;23.90;51.50;;;28.17;34.05;100792.44;5094972;28;20117;-12
2021/09/10 01:27:49;;;;;;;4.53;4.13;;;23.80;51.40;;;28.17;33.77;100795.13;5094973;28;20485;-12
2021/09/10 01:30:18;;;;;;;4.82;3.90;;;23.90;51.50;;;28.18;33.86;100805.72;5094896;28;20478;-12
2021/09/10 01:32:45;;;;;;;4.57;4.13;;;23.80;51.40;;;28.18;34.01;100805.72;5094751;28;20448;-12
2021/09/10 01:35:11;;;;;;;5.10;4.60;;;23.80;51.50;;;28.17;33.60;100800.50;5094750;28;20099;-12
2021/09/10 01:37:37;;;;;;;4.70;4.20;;;23.80;51.40;;;28.15;33.75;100787.22;5076678;28;20473;-12
2021/09/10 01:40:05;;;;;;;5.03;4.40;;;23.80;51.50;;;28.18;33.68;100794.97;5094646;28;20075;-12
2021/09/10 01:42:31;;;;;;;4.22;3.83;;;23.80;51.50;;;28.19;33.71;100795.81;5094687;28;20094;-12
2021/09/10 01:44:57;;;;;;;4.15;3.75;;;23.80;51.50;;;28.18;33.87;100796.81;5094635;28;20079;-12
2021/09/10 01:47:22;;;;;;;4.30;3.90;;;23.80;51.50;;;28.18;33.52;100791.44;5094825;28;20040;-12
2021/09/10 01:49:48;;;;;;;4.63;4.20;;;23.80;51.50;;;28.17;33.78;100793.28;5094554;28;20055;-12
2021/09/10 01:52:14;;;;;;;4.72;4.15;;;23.80;51.40;;;28.16;33.70;100780.81;5094611;28;20409;-12
2021/09/10 01:54:40;;;;;;;4.32;3.92;;;23.80;51.50;;;28.17;33.90;100782.53;5094498;28;20055;-12
2021/09/10 01:57:06;;;;;;;4.68;4.18;;;23.90;51.50;;;28.17;33.96;100797.81;5094652;28;20048;-12
2021/09/10 01:59:32;;;;;;;4.65;4.25;;;23.80;51.50;;;28.17;33.96;100801.34;5094387;28;20470;-12
2021/09/10 02:01:58;;;;;;;4.30;3.90;;;23.80;51.50;;;28.15;33.82;100789.03;5094677;28;20097;-12
2021/09/10 02:04:23;;;;;;;4.38;3.97;;;23.80;51.50;;;28.18;33.87;100802.19;5094325;28;20466;-12
2021/09/10 02:06:49;;;;;;;4.90;3.97;;;23.80;51.50;;;28.18;33.53;100807.56;5093910;28;20093;-12
2021/09/10 02:09:15;;;;;;;4.40;3.97;;;23.80;51.50;;;28.19;33.84;100812.78;5094199;28;20108;-12
2021/09/10 02:11:41;;;;;;;5.07;4.20;;;23.80;51.50;;;28.18;33.61;100808.41;5076355;28;20206;-11
2021/09/10 02:14:06;;;;;;;4.63;4.22;;;23.80;51.50;;;28.16;33.72;100814.94;5075934;28;20448;-12
2021/09/10 02:16:32;;;;;;;4.10;3.80;;;23.80;51.50;;;28.16;33.76;100820.31;5076470;28;20394;-12
2021/09/10 02:18:58;;;;;;;5.30;4.80;;;23.90;51.50;;;28.15;33.74;100813.22;5092747;28;20052;-11
2021/09/10 02:21:24;;;;;;;5.22;4.72;;;23.80;51.50;;;28.15;33.72;100819.47;5094042;28;20493;-12
2021/09/10 02:23:50;;;;;;;4.47;4.07;;;23.80;51.50;;;28.14;34.04;100812.38;5094346;28;20559;-11
2021/09/10 02:26:16;;;;;;;4.47;4.07;;;23.80;51.50;;;28.16;33.68;100820.31;5094549;28;20044;-12
2021/09/10 02:28:42;;;;;;;4.47;3.92;;;23.80;51.50;;;28.13;33.68;100805.28;5094008;28;20457;-12
2021/09/10 02:31:08;;;;;;;4.55;4.15;;;23.80;51.50;;;28.16;33.60;100810.38;5093881;28;20489;-12
2021/09/10 02:33:33;;;;;;;4.20;3.80;;;23.80;51.50;;;28.13;33.80;100816.03;5091085;28;20045;-12
2021/09/10 02:36:00;;;;;;;4.53;4.10;;;23.80;51.50;;;28.15;33.79;100818.59;5093870;28;20047;-11
2021/09/10 02:38:27;;;;;;;4.63;4.22;;;23.80;51.50;;;28.15;33.91;100823.97;5093849;28;20048;-12
2021/09/10 02:40:53;;;;;;;4.95;4.45;;;23.80;51.50;;;28.15;34.00;100829.34;5093580;28;20485;-12
2021/09/10 02:43:20;;;;;;;4.72;4.25;;;23.80;51.50;;;28.14;34.02;100822.28;5094048;28;20051;-12
2021/09/10 02:45:47;;;;;;;4.63;4.22;;;23.80;51.50;;;28.12;33.74;100833.19;5093700;28;20048;-12
2021/09/10 02:48:13;;;;;;;4.90;4.40;;;23.80;51.40;;;28.12;33.64;100838.56;5091984;28;20050;-12
2021/09/10 02:50:39;;;;;;;5.00;4.50;;;23.80;51.50;;;28.11;33.70;100828.78;5093420;28;20051;-12
2021/09/10 02:53:05;;;;;;;4.80;4.35;;;23.80;51.50;;;28.13;33.72;100834.03;5093782;28;20466;-12
2021/09/10 02:55:31;;;;;;;3.90;3.55;;;23.80;51.50;;;28.12;33.66;100840.38;5093445;28;20058;-12
2021/09/10 02:57:57;;;;;;;4.38;3.97;;;23.80;51.50;;;28.11;33.91;100838.69;5093247;28;20052;-12
2021/09/10 03:00:22;;;;;;;4.20;3.80;;;23.80;51.50;;;28.12;33.64;100830.50;5093407;28;20048;-12
2021/09/10 03:02:49;;;;;;;4.53;4.13;;;23.80;51.50;;;28.12;33.96;100832.31;5093352;28;20093;-12
2021/09/10 03:05:15;;;;;;;4.50;4.10;;;23.80;51.50;;;28.10;33.68;100829.81;5093376;28;20044;-12
2021/09/10 03:07:41;;;;;;;5.05;4.55;;;23.80;51.50;;;28.12;33.89;100829.63;5093833;28;20539;-12
2021/09/10 03:10:08;;;;;;;4.60;4.13;;;23.80;51.50;;;28.11;33.76;100828.78;5093175;28;20052;-12
2021/09/10 03:12:36;;;;;;;4.72;4.32;;;23.80;51.40;;;28.13;34.01;100834.03;5092012;28;20102;-12
2021/09/10 03:15:09;;;;;;;4.50;4.10;;;23.80;51.50;;;28.10;34.01;100829.81;5091955;28;20501;-11
2021/09/10 03:17:35;;;;;;;4.40;4.00;;;23.80;51.50;;;28.11;33.80;100825.25;5093226;28;20052;-12
2021/09/10 03:20:01;;;;;;;5.13;4.43;;;23.80;51.50;;;28.11;33.85;100822.56;5091928;28;20059;-12
2021/09/10 03:22:27;;;;;;;4.05;3.65;;;23.80;51.50;;;28.12;33.82;100827.81;5093199;28;20425;-12
2021/09/10 03:24:53;;;;;;;4.63;4.22;;;23.80;51.50;;;28.12;33.75;100829.63;5093637;28;20047;-11
2021/09/10 03:27:18;;;;;;;4.68;4.25;;;23.80;51.50;;;28.09;33.81;100828.09;5093043;28;20130;-11
2021/09/10 03:29:44;;;;;;;4.65;4.05;;;23.80;51.50;;;28.12;33.67;100829.63;5091743;28;20059;-12
2021/09/10 03:32:10;;;;;;;4.28;3.92;;;23.80;51.50;;;28.12;33.74;100827.81;5092910;28;20048;-12
2021/09/10 03:34:35;;;;;;;4.72;4.22;;;23.80;51.50;;;28.08;34.07;100824.56;5092917;28;20044;-12
2021/09/10 03:37:01;;;;;;;5.13;4.25;;;23.80;51.50;;;28.11;33.85;100825.25;5093151;28;20422;-12
2021/09/10 03:39:27;;;;;;;4.75;4.25;;;23.80;51.50;;;28.10;33.58;100821.75;5092956;28;20391;-12
2021/09/10 03:41:53;;;;;;;4.32;3.92;;;23.80;51.50;;;28.12;33.90;100818.88;5092853;28;20050;-12
2021/09/10 03:44:18;;;;;;;4.30;3.90;;;23.80;51.50;;;28.11;33.77;100818.03;5093034;28;20039;-12
2021/09/10 03:46:44;;;;;;;4.35;3.95;;;23.80;51.50;;;28.08;33.73;100811.13;5093007;28;20058;-12
2021/09/10 03:49:10;;;;;;;4.40;3.85;;;23.80;51.50;;;28.09;33.98;100810.13;5092872;28;20050;-12
2021/09/10 03:51:36;;;;;;;5.07;4.57;;;23.80;51.50;;;28.11;33.96;100812.66;5074857;28;20051;-12
2021/09/10 03:54:01;;;;;;;4.35;3.95;;;23.80;51.50;;;28.11;33.58;100817.19;5092737;28;20052;-12
2021/09/10 03:56:27;;;;;;;4.63;4.15;;;23.80;51.50;;;28.09;33.90;100812.81;5092742;28;20048;-12
2021/09/10 03:58:53;;;;;;;4.80;4.30;;;23.80;51.50;;;28.11;33.96;100820.72;5092864;28;20486;-12
2021/09/10 04:01:19;;;;;;;4.93;4.30;;;23.80;51.50;;;28.10;33.94;100821.75;5092886;28;20486;-12
2021/09/10 04:03:45;;;;;;;4.60;4.20;;;23.80;51.50;;;28.12;33.61;100816.19;5092600;28;20135;-12
2021/09/10 04:06:11;;;;;;;4.32;3.92;;;23.80;51.50;;;28.11;33.99;100809.13;5092504;28;20440;-12
2021/09/10 04:08:39;;;;;;;4.50;4.10;;;23.80;51.40;;;28.11;33.62;100804.59;5092405;28;20051;-12
2021/09/10 04:11:06;;;;;;;4.60;4.20;;;23.80;51.50;;;28.10;33.95;100805.59;5092906;28;20143;-11
2021/09/10 04:13:33;;;;;;;4.47;4.07;;;23.80;51.50;;;28.11;34.07;100809.13;5092381;28;20048;-12
2021/09/10 04:15:59;;;;;;;4.35;3.95;;;23.80;51.50;;;28.08;33.84;100810.25;5092249;28;20040;-12
2021/09/10 04:18:25;;;;;;;4.40;4.00;;;23.80;51.50;;;28.09;34.04;100811.97;5092724;28;20055;-12
2021/09/10 04:20:52;;;;;;;5.15;4.65;;;23.80;51.50;;;28.11;33.80;100811.81;5092145;28;20047;-11
2021/09/10 04:23:19;;;;;;;5.47;4.40;;;23.80;51.40;;;28.08;33.76;100810.25;5092405;28;20044;-12
2021/09/10 04:25:47;;;;;;;4.40;4.00;;;23.80;51.40;;;28.08;34.05;100812.94;5092788;28;20048;-12
2021/09/10 04:28:13;;;;;;;4.75;4.25;;;23.80;51.40;;;28.10;33.92;100819.06;5092335;28;20044;-12
2021/09/10 04:30:39;;;;;;;4.35;3.95;;;23.90;51.50;;;28.07;33.69;100812.09;5093296;28;20109;-11
2021/09/10 04:33:05;;;;;;;4.15;3.75;;;23.80;51.40;;;28.08;34.03;100818.31;5095723;28;20047;-11
2021/09/10 04:35:31;;;;;;;4.32;3.92;;;23.80;51.40;;;28.08;33.66;100813.81;5096053;28;20044;-12
2021/09/10 04:37:56;;;;;;;4.43;4.03;;;23.80;51.70;;;28.07;33.68;100813.97;5095327;28;20127;-12
2021/09/10 04:40:22;;;;;;;4.30;3.90;;;23.80;51.40;;;28.08;33.73;100819.19;5095736;28;20070;-12
2021/09/10 04:42:48;;;;;;;4.30;3.90;;;23.80;51.40;;;28.11;33.92;100818.03;5095673;28;20404;-12
2021/09/10 04:45:14;;;;;;;4.47;4.07;;;23.90;51.50;;;28.08;33.64;100829.06;5095552;28;20040;-12
2021/09/10 04:47:39;;;;;;;4.22;3.83;;;23.80;51.40;;;28.08;33.94;100819.19;5096004;28;20052;-12
2021/09/10 04:50:06;;;;;;;4.70;4.20;;;23.90;51.50;;;28.08;33.73;100800.38;5095737;28;20435;-12
2021/09/10 04:52:33;;;;;;;5.15;4.65;;;23.80;51.40;;;28.10;34.01;100802.94;5095777;28;20063;-12
2021/09/10 04:54:59;;;;;;;5.00;4.50;;;23.80;51.40;;;28.07;33.63;100809.41;5095399;28;20052;-12
2021/09/10 04:57:25;;;;;;;4.72;4.32;;;23.80;51.50;;;28.09;33.91;100810.13;5095304;28;20043;-12
2021/09/10 04:59:53;;;;;;;4.88;4.38;;;23.80;51.50;;;28.09;33.61;100810.13;5077655;28;20066;-11
2021/09/10 05:02:19;;;;;;;4.68;4.20;;;23.80;51.40;;;28.08;33.66;100818.31;5095811;28;20059;-12
2021/09/10 05:04:45;;;;;;;4.70;4.25;;;23.80;51.40;;;28.06;33.79;100828.38;5095661;28;20039;-12
2021/09/10 05:07:10;;;;;;;4.50;4.10;;;23.80;51.50;;;28.08;34.07;100838.00;5095279;28;20139;-12
2021/09/10 05:09:36;;;;;;;4.47;4.05;;;23.80;51.40;;;28.09;33.83;100841.53;5095581;28;20040;-12
2021/09/10 05:12:03;;;;;;;5.00;4.50;;;23.90;51.50;;;28.07;33.69;100851.59;5095369;28;20059;-12
2021/09/10 05:14:29;;;;;;;4.80;4.40;;;23.80;51.40;;;28.09;33.94;100865.72;5095709;28;20097;-12
2021/09/10 05:16:55;;;;;;;5.10;4.60;;;23.90;51.40;;;28.08;34.01;100870.25;5095413;28;20047;-12
2021/09/10 05:19:21;;;;;;;4.50;4.10;;;23.90;51.40;;;28.08;33.95;100870.25;5094853;28;20132;-12
2021/09/10 05:21:47;;;;;;;4.95;4.38;;;23.90;51.40;;;28.08;33.92;100869.41;5095041;28;20040;-12
2021/09/10 05:24:13;;;;;;;4.32;3.90;;;23.90;51.40;;;28.09;33.59;100863.88;5095068;28;20044;-12
2021/09/10 05:26:38;;;;;;;5.00;4.50;;;23.80;51.40;;;28.10;33.76;100867.44;5094814;28;20070;-12
2021/09/10 05:29:04;;;;;;;4.63;4.03;;;23.90;51.40;;;28.10;33.84;100872.81;5094660;28;20040;-12
2021/09/10 05:31:30;;;;;;;4.25;3.85;;;23.90;51.40;;;28.08;33.86;100870.25;5094802;28;20048;-12
2021/09/10 05:33:56;;;;;;;5.05;4.65;;;23.90;51.40;;;28.08;33.66;100872.94;5093834;28;20044;-11
2021/09/10 05:36:21;;;;;;;4.07;3.72;;;23.90;51.40;;;28.10;33.85;100872.81;5094950;28;20070;-12
2021/09/10 05:38:47;;;;;;;4.78;4.00;;;23.90;51.40;;;28.07;34.07;100867.72;5094700;28;20048;-11
2021/09/10 05:41:13;;;;;;;3.78;3.47;;;23.80;51.40;;;28.07;33.68;100862.34;5094190;28;20089;-12
2021/09/10 05:43:39;;;;;;;4.43;4.03;;;23.90;51.40;;;28.09;33.63;100866.56;5094619;28;20056;-12
2021/09/10 05:46:04;;;;;;;4.60;4.15;;;23.80;51.40;;;28.08;33.72;100859.50;5094888;28;20399;-12
2021/09/10 05:48:30;;;;;;;4.85;4.45;;;23.90;51.90;;;28.08;34.08;100872.06;5094627;28;20048;-12
2021/09/10 05:50:56;;;;;;;4.78;4.30;;;23.90;51.90;;;28.09;33.76;100881.84;5094449;28;20056;-12
2021/09/10 05:53:22;;;;;;;5.10;3.85;;;23.90;51.40;;;28.10;33.81;100883.56;5094366;28;20050;-12
2021/09/10 05:55:48;;;;;;;4.45;4.05;;;23.90;51.30;;;28.11;33.99;100887.09;5094393;28;20044;-12
2021/09/10 05:58:14;;;;;;;4.22;3.83;;;23.90;51.40;;;28.09;33.68;100888.06;5094371;28;20054;-12
2021/09/10 06:00:39;;;;;;;4.45;4.05;;;23.90;51.40;;;28.11;33.75;100890.63;5094551;28;20052;-12
2021/09/10 06:03:05;;;;;;;4.82;4.22;;;23.90;51.40;;;28.08;33.73;100877.47;5094467;28;20135;-12
2021/09/10 06:05:31;;;;;;;5.15;4.47;;;23.90;51.60;;;28.09;34.16;100892.59;5094037;28;20397;-12
2021/09/10 06:07:57;;;;;;;6.25;4.50;;;23.90;51.70;;;28.08;34.52;100898.97;5094139;28;20052;-12
2021/09/10 06:10:23;;;;;;;6.97;5.65;;;23.90;52.60;;;28.13;35.12;100914.66;5094710;28;20040;-12
2021/09/10 06:12:49;;;;;;;9.35;6.38;;;24.00;55.20;;;28.13;36.30;100911.97;5094674;28;20048;-12
2021/09/10 06:15:15;;;;;;;10.82;7.78;;;24.10;57.20;;;28.16;37.05;100920.59;5094689;28;20073;-12
2021/09/10 06:17:42;;;;;;;14.02;9.18;;;24.20;58.40;;;28.19;37.71;100941.84;5093944;28;20382;-12
2021/09/10 06:20:09;;;;;;;12.85;8.77;;;24.20;59.80;;;28.23;37.99;100950.47;5093973;28;20044;-12
2021/09/10 06:22:35;;;;;;;16.02;10.48;;;24.30;60.30;;;28.23;38.56;100954.03;5094086;28;20048;-12
2021/09/10 06:25:02;;;;;;;15.38;10.63;;;24.30;61.80;;;28.27;38.98;100944.66;5093986;28;20457;-12
2021/09/10 06:27:30;;;;;;;14.15;10.18;;;24.30;61.30;;;28.28;39.45;100943.69;5076043;28;20093;-12
2021/09/10 06:29:55;;;;;;;14.57;11.20;;;24.30;61.30;;;28.28;39.23;100943.69;5093669;28;20043;-12
2021/09/10 06:32:24;;;;;;;14.25;10.70;;;24.30;61.30;;;28.32;39.89;100954.16;5093826;28;20056;-12
2021/09/10 06:34:49;;;;;;;18.30;11.02;;;24.30;62.70;;;28.32;39.66;100955.00;5076059;28;20098;-12
2021/09/10 06:37:15;;;;;;;15.55;10.43;;;24.20;62.20;;;28.33;39.93;100963.91;5094247;28;20048;-12
2021/09/10 06:39:41;;;;;;;17.45;10.65;;;24.20;62.20;;;28.34;39.98;100977.22;5093923;28;20040;-12
2021/09/10 06:42:07;;;;;;;15.00;10.07;;;24.30;62.00;;;28.33;39.93;100980.91;5093714;28;20390;-12
2021/09/10 06:44:32;;;;;;;15.07;10.48;;;24.30;62.10;;;28.36;40.08;100977.09;5093616;28;20517;-12
2021/09/10 06:46:58;;;;;;;17.25;10.27;;;24.30;62.10;;;28.38;40.19;100973.25;5093632;28;20051;-11
2021/09/10 06:49:24;;;;;;;20.27;12.98;;;24.30;61.30;;;28.37;40.35;100973.41;5093530;28;20481;-12
2021/09/10 06:51:50;;;;;;;17.85;11.52;;;24.30;62.00;;;28.37;39.96;100963.50;5093766;28;20051;-12
2021/09/10 06:54:15;;;;;;;18.70;11.05;;;24.20;62.40;;;28.29;40.23;100944.53;5093352;28;20048;-12
2021/09/10 06:56:41;;;;;;;14.10;10.30;;;24.00;62.80;;;28.25;40.52;100946.66;5092454;28;20044;-12
2021/09/10 06:59:07;;;;;;;13.55;9.63;;;24.10;62.40;;;28.26;40.42;100952.88;5093439;28;20073;-12
2021/09/10 07:01:35;;;;;;;18.42;11.75;;;24.10;62.10;;;28.23;40.22;100950.47;5093369;28;20048;-11
2021/09/10 07:04:01;;;;;;;32.30;21.92;;;24.10;62.00;;;28.15;41.70;100948.50;5093389;28;20052;-12
2021/09/10 07:06:29;;;;;;;24.30;19.10;;;23.70;65.10;;;27.99;42.08;100965.16;5093739;28;20047;-12
2021/09/10 07:08:55;;;;;;;25.95;21.77;;;23.20;66.40;;;27.74;42.73;100963.81;5093309;28;20048;-12
2021/09/10 07:11:21;;;;;;;31.38;21.85;;;22.80;68.80;;;27.58;42.99;100982.25;5093183;28;20060;-12
2021/09/10 07:13:47;;;;;;;27.60;21.02;;;22.70;69.70;;;27.49;43.49;100984.78;5093303;28;20125;-12
2021/09/10 07:16:14;;;;;;;37.22;26.45;;;22.80;69.00;;;27.42;44.35;100985.47;5093203;28;20112;-12
2021/09/10 07:18:40;;;;;;;32.45;21.25;;;22.60;70.10;;;27.27;44.24;100983.09;5092918;28;20134;-12
2021/09/10 07:21:05;;;;;;;23.08;16.02;;;22.50;70.30;;;27.27;43.91;100990.31;5093147;28;20485;-12
2021/09/10 07:23:32;;;;;;;17.95;14.35;;;22.70;69.30;;;27.31;43.52;100984.56;5093076;28;20048;-11
2021/09/10 07:26:02;;;;;;;20.20;13.07;;;22.90;68.10;;;27.39;43.29;100997.31;5093044;28;20043;-11
2021/09/10 07:28:30;;;;;;;14.70;12.82;;;23.00;66.60;;;27.46;43.25;100992.25;5093231;28;20059;-12
2021/09/10 07:30:56;;;;;;;18.85;12.13;;;23.20;66.10;;;27.52;42.52;100995.25;5093256;28;20432;-12
2021/09/10 07:33:22;;;;;;;14.68;11.27;;;23.30;65.10;;;27.59;42.27;100995.56;5075286;28;20094;-12
2021/09/10 07:35:48;;;;;;;13.73;11.93;;;23.40;64.40;;;27.63;42.37;100991.63;5093282;28;20044;-12
2021/09/10 07:38:14;;;;;;;13.68;9.75;;;23.50;63.80;;;27.71;42.23;101005.22;5092919;28;20044;-11
2021/09/10 07:40:39;;;;;;;14.75;10.85;;;23.70;63.10;;;27.76;42.00;100996.75;5092885;28;20071;-12
2021/09/10 07:43:05;;;;;;;14.52;11.05;;;23.70;62.90;;;27.81;41.62;101007.94;5092937;28;20055;-12
2021/09/10 07:45:31;;;;;;;16.65;10.32;;;23.80;62.30;;;27.82;41.42;101017.72;5089476;28;20056;-12
2021/09/10 07:47:56;;;;;;;14.50;10.45;;;23.80;62.30;;;27.85;41.24;101016.56;5092935;28;20172;-12
2021/09/10 07:50:22;;;;;;;12.25;10.13;;;23.80;62.20;;;27.90;41.25;101025.94;5092431;28;20056;-12
2021/09/10 07:52:48;;;;;;;12.90;9.80;;;23.80;62.00;;;27.93;41.37;101030.19;5092654;28;20044;-12
2021/09/10 07:55:14;;;;;;;11.75;9.55;;;23.80;61.90;;;27.93;41.28;101022.16;5093158;28;20056;-12
2021/09/10 07:57:39;;;;;;;12.85;9.32;;;23.80;61.60;;;27.96;41.17;101026.41;5092586;28;20047;-11
2021/09/10 08:00:06;;;;;;;12.85;10.20;;;23.90;61.60;;;27.97;40.80;101028.13;5092696;28;20056;-12
2021/09/10 08:02:32;;;;;;;12.48;9.77;;;23.90;61.40;;;27.99;41.00;101028.81;5092895;28;20047;-12
2021/09/10 08:04:59;;;;;;;13.20;9.05;;;23.90;61.10;;;28.02;40.80;101025.88;5095029;28;20036;-12
2021/09/10 08:07:25;;;;;;;11.77;9.30;;;23.90;61.20;;;28.03;40.58;101032.91;5099620;28;20497;-12
2021/09/10 08:09:51;;;;;;;12.07;8.77;;;23.90;61.20;;;28.04;40.79;101024.72;5099540;28;20039;-12
2021/09/10 08:12:17;;;;;;;11.00;8.68;;;23.90;61.00;;;28.06;40.82;101032.66;5099058;28;20493;-11
2021/09/10 08:14:42;;;;;;;9.77;8.23;;;23.90;60.70;;;28.06;40.48;101020.06;5099121;28;20051;-12
2021/09/10 08:17:08;;;;;;;10.65;8.55;;;23.90;60.60;;;28.07;40.34;101037.91;5099208;28;20130;-12
2021/09/10 08:19:34;;;;;;;10.95;8.85;;;24.00;60.80;;;28.07;40.56;101042.44;5099246;28;20086;-12
2021/09/10 08:22:00;;;;;;;10.68;9.05;;;23.90;60.50;;;28.09;40.19;101043.97;5099384;28;20429;-12
2021/09/10 08:24:26;;;;;;;12.80;8.80;;;24.00;60.50;;;28.08;40.52;101044.09;5099393;28;20478;-12
2021/09/10 08:26:51;;;;;;;9.57;8.30;;;24.00;60.90;;;28.12;40.13;101060.81;5099028;28;20383;-12
2021/09/10 08:29:17;;;;;;;10.43;8.40;;;24.00;60.30;;;28.11;40.30;101059.97;5098863;28;20070;-11
2021/09/10 08:31:43;;;;;;;11.55;9.05;;;24.00;60.20;;;28.10;40.29;101069.03;5099506;28;20048;-12
2021/09/10 08:34:09;;;;;;;10.85;8.27;;;24.00;60.20;;;28.12;40.08;101069.75;5099035;28;20131;-12
2021/09/10 08:36:34;;;;;;;11.02;7.95;;;24.00;60.10;;;28.13;40.39;101078.66;5098821;28;20056;-12
2021/09/10 08:39:01;;;;;;;11.02;8.32;;;24.00;60.10;;;28.10;39.93;101079.78;5098984;28;20056;-12
2021/09/10 08:41:28;;;;;;;11.35;9.18;;;24.00;60.10;;;28.13;40.14;101089.41;5098892;28;20131;-12
2021/09/10 08:44:02;;;;;;;11.32;8.30;;;24.00;60.00;;;28.12;39.95;101099.31;5099085;28;20044;-12
2021/09/10 08:46:28;;;;;;;10.93;8.48;;;24.00;60.00;;;28.13;39.98;101092.09;5097633;28;20060;-12
2021/09/10 08:48:54;;;;;;;10.25;8.25;;;24.00;59.90;;;28.13;39.83;101108.22;5098669;28;20580;-12
2021/09/10 08:51:20;;;;;;;11.00;8.52;;;24.00;59.80;;;28.13;40.19;101102.84;5098629;28;20060;-12
2021/09/10 08:53:45;;;;;;;10.15;8.35;;;24.00;59.70;;;28.16;40.18;101095.34;5098713;28;20378;-11
2021/09/10 08:56:12;;;;;;;9.65;7.97;;;24.10;59.80;;;28.13;40.10;101089.41;5098493;28;20120;-12
2021/09/10 08:58:37;;;;;;;9.68;7.75;;;24.10;59.70;;;28.14;39.94;101072.31;5098640;28;20059;-12
2021/09/10 09:01:04;;;;;;;10.93;8.27;;;24.10;59.50;;;28.15;40.07;101071.28;5099055;28;20051;-11
2021/09/10 09:03:32;;;;;;;8.15;7.25;;;24.10;59.60;;;28.14;39.75;101069.59;5098640;28;20048;-12
2021/09/10 09:05:58;;;;;;;9.18;7.88;;;24.10;60.10;;;28.12;39.69;101083.19;5098805;28;20495;-12
2021/09/10 09:08:24;;;;;;;11.27;8.02;;;24.00;59.50;;;28.12;39.92;101067.06;5098485;28;20413;-12
2021/09/10 09:10:59;;;;;;;11.45;7.90;;;24.00;59.50;;;28.14;39.70;101069.59;5097175;28;20052;-12
2021/09/10 09:13:34;;;;;;;10.70;7.40;;;24.00;59.50;;;28.10;39.55;101050.22;5098518;28;20076;-12
2021/09/10 09:16:23;;;;;;;10.30;7.65;;;24.00;59.50;;;28.13;39.68;101055.28;5097485;28;20079;-12
2021/09/10 09:19:01;;;;;;;10.15;7.43;;;23.90;59.50;;;28.10;39.93;101047.53;5095089;28;20073;-12
2021/09/10 09:21:36;;;;;;;22.63;9.70;;;24.00;59.50;;;28.13;39.81;101049.09;5095100;28;20128;-12
2021/09/10 09:24:14;;;;;;;36.58;12.88;;;24.00;59.30;;;28.13;39.42;101049.09;5095296;28;20044;-11
2021/09/10 09:26:44;;;;;;;59.15;15.77;;;24.00;59.40;;;28.13;39.60;101041.84;5095240;28;20052;-11
2021/09/10 09:29:17;;;;;;;60.65;14.65;;;23.90;59.40;;;28.13;39.64;101028.41;5093705;28;20390;-12
2021/09/10 09:31:58;;;;;;;59.33;15.63;;;24.00;59.50;;;28.15;39.38;101031.84;5094817;28;20512;-12
2021/09/10 09:34:49;;;;;;;68.30;17.33;;;24.00;59.40;;;28.17;39.40;101032.53;5094882;28;20090;-12
2021/09/10 09:37:24;;;;;;;74.15;18.75;;;23.90;59.40;;;28.15;39.76;101029.16;5094781;28;20040;-12
2021/09/10 09:39:55;;;;;;;90.13;20.50;;;23.90;59.40;;;28.12;39.69;101023.19;5093442;28;20505;-12
2021/09/10 09:42:35;;;;;;;82.45;19.63;;;23.90;59.40;;;28.14;39.34;101023.91;5094778;28;20055;-12
2021/09/10 09:45:22;;;;;;;91.75;20.50;;;23.90;59.40;;;28.12;39.66;101017.78;5094665;28;20048;-12
2021/09/10 09:47:48;;;;;;;66.65;16.27;;;23.90;59.30;;;28.13;39.72;101009.59;5094628;28;20051;-12
2021/09/10 09:50:18;;;;;;;57.05;16.33;;;23.90;59.40;;;28.13;39.66;101006.91;5094259;28;20056;-11
2021/09/10 09:52:48;;;;;;;58.40;16.00;;;23.90;59.40;;;28.15;39.57;101015.72;5094663;28;20052;-12
2021/09/10 09:55:14;;;;;;;56.72;15.10;;;23.90;59.50;;;28.16;39.49;101021.94;5094655;28;20485;-12
2021/09/10 09:57:40;;;;;;;50.35;14.90;;;23.90;59.50;;;28.15;39.39;101025.59;5094428;28;20046;-12
2021/09/10 10:00:07;;;;;;;51.53;15.25;;;23.90;59.30;;;28.14;39.63;101032.81;5093053;28;20054;-12
2021/09/10 10:02:34;;;;;;;51.65;14.57;;;23.90;59.70;;;28.16;39.37;101036.22;5094311;28;20051;-12
2021/09/10 10:05:00;;;;;;;48.50;15.20;;;24.00;59.20;;;28.19;39.21;101035.09;5094252;28;20062;-12
2021/09/10 10:07:31;;;;;;;51.75;14.77;;;24.00;59.10;;;28.18;39.33;101028.84;5094705;28;20048;-12